createdAt,value
2022-08-17T00:01:14.194Z,20.30
2022-08-17T00:06:28.137Z,19.42
2022-08-17T00:11:32.874Z,18.73
2022-08-17T00:16:51.916Z,19.77
2022-08-17T00:22:33.039Z,19.33
2022-08-17T00:27:24.538Z,20.00
2022-08-17T00:33:12.019Z,20.27
2022-08-17T00:37:48.813Z,19.83
2022-08-17T00:42:50.892Z,20.33
2022-08-17T00:47:52.824Z,20.95
2022-08-17T00:52:57.469Z,20.85
2022-08-17T00:58:03.068Z,20.63
2022-08-17T01:03:11.899Z,19.73
2022-08-17T01:08:16.473Z,19.77
2022-08-17T01:13:18.343Z,19.63
2022-08-17T01:18:20.306Z,20.83
2022-08-17T01:23:24.390Z,20.33
2022-08-17T01:28:52.299Z,20.00
2022-08-17T01:33:53.260Z,19.83
2022-08-17T01:38:55.011Z,21.10
2022-08-17T01:44:01.494Z,20.02
2022-08-17T01:49:07.405Z,19.65
2022-08-17T01:54:13.459Z,19.98
2022-08-17T01:59:16.754Z,21.40
2022-08-17T02:04:18.668Z,19.83
2022-08-17T02:09:27.167Z,20.30
2022-08-17T02:14:31.792Z,17.90
2022-08-17T02:19:33.582Z,18.35
2022-08-17T02:24:59.329Z,18.15
2022-08-17T02:30:00.189Z,17.83
2022-08-17T02:35:02.150Z,18.80
2022-08-17T02:40:05.137Z,18.77
2022-08-17T02:45:13.831Z,18.48
2022-08-17T02:50:17.855Z,18.60
2022-08-17T02:55:23.009Z,18.05
2022-08-17T03:00:33.952Z,17.60
2022-08-17T03:05:38.134Z,18.42
2022-08-17T03:10:39.969Z,18.58
2022-08-17T03:15:45.174Z,18.83
2022-08-17T03:20:47.211Z,17.98
2022-08-17T03:25:48.986Z,19.17
2022-08-17T03:30:55.313Z,19.85
2022-08-17T03:35:57.579Z,18.08
2022-08-17T03:40:59.964Z,19.45
2022-08-17T03:46:28.777Z,19.42
2022-08-17T03:51:55.194Z,18.80
2022-08-17T03:57:16.288Z,19.52
2022-08-17T04:02:23.257Z,19.48
2022-08-17T04:07:28.508Z,18.38
2022-08-17T04:12:49.060Z,18.45
2022-08-17T04:17:52.371Z,20.15
2022-08-17T04:23:06.445Z,19.77
2022-08-17T04:28:09.429Z,18.48
2022-08-17T04:33:23.984Z,18.17
2022-08-17T04:38:32.314Z,18.30
2022-08-17T04:43:35.368Z,18.73
2022-08-17T04:48:40.469Z,18.42
2022-08-17T04:53:45.625Z,19.42
2022-08-17T04:58:59.347Z,18.30
2022-08-17T05:04:33.485Z,18.42
2022-08-17T05:09:26.897Z,19.55
2022-08-17T05:14:32.705Z,19.60
2022-08-17T05:19:35.611Z,20.05
2022-08-17T05:24:43.547Z,19.85
2022-08-17T05:29:55.409Z,19.20
2022-08-17T05:34:59.951Z,20.00
2022-08-17T05:40:01.922Z,18.70
2022-08-17T05:45:05.032Z,18.38
2022-08-17T05:50:09.787Z,19.08
2022-08-17T05:55:28.670Z,18.27
2022-08-17T06:00:59.547Z,18.83
2022-08-17T06:06:09.133Z,17.83
2022-08-17T06:11:32.268Z,18.65
2022-08-17T06:16:44.698Z,16.08
2022-08-17T06:26:52.245Z,16.70
2022-08-17T06:31:54.105Z,16.80
2022-08-17T06:37:15.282Z,16.10
2022-08-17T06:42:59.902Z,14.98
2022-08-17T06:48:12.816Z,14.45
2022-08-17T06:53:26.123Z,13.68
2022-08-17T06:58:31.295Z,13.88
2022-08-17T07:03:49.781Z,12.48
2022-08-17T07:08:59.079Z,16.42
2022-08-17T07:14:21.462Z,11.73
2022-08-17T07:19:31.714Z,11.57
2022-08-17T07:24:47.244Z,12.50
2022-08-17T07:29:54.331Z,10.63
2022-08-17T07:35:08.485Z,10.63
2022-08-17T07:40:26.961Z,9.68
2022-08-17T07:45:48.894Z,9.68
2022-08-17T07:50:53.241Z,9.68
2022-08-17T07:55:55.066Z,8.45
2022-08-17T08:01:10.609Z,8.07
2022-08-17T08:06:26.422Z,8.05
2022-08-17T08:11:34.581Z,8.00
2022-08-17T08:16:36.731Z,7.28
2022-08-17T08:22:02.265Z,7.07
2022-08-17T08:27:27.061Z,7.82
2022-08-17T08:32:37.904Z,6.72
2022-08-17T08:37:43.350Z,6.90
2022-08-17T08:42:56.438Z,6.68
2022-08-17T08:48:05.130Z,6.43
2022-08-17T08:53:23.494Z,5.78
2022-08-17T08:58:42.080Z,6.78
2022-08-17T09:04:25.194Z,6.65
2022-08-17T09:09:45.849Z,6.45
2022-08-17T09:15:15.793Z,6.13
2022-08-17T09:20:28.002Z,5.85
2022-08-17T09:25:34.908Z,5.13
2022-08-17T09:31:08.455Z,5.55
2022-08-17T09:36:33.242Z,4.30
2022-08-17T09:41:51.757Z,4.75
2022-08-17T09:47:12.471Z,6.40
2022-08-17T09:52:27.000Z,5.28
2022-08-17T09:58:09.593Z,5.60
2022-08-17T10:03:24.136Z,4.47
2022-08-17T10:08:53.890Z,5.10
2022-08-17T10:14:36.768Z,4.97
2022-08-17T10:19:43.940Z,4.60
2022-08-17T10:25:22.164Z,4.57
2022-08-17T10:30:30.502Z,4.80
2022-08-17T10:35:50.163Z,4.95
2022-08-17T10:41:19.353Z,6.18
2022-08-17T10:46:39.673Z,5.78
2022-08-17T10:51:41.970Z,6.20
2022-08-17T10:56:46.992Z,5.00
2022-08-17T11:02:00.873Z,4.47
2022-08-17T11:07:29.209Z,4.95
2022-08-17T11:13:02.252Z,4.50
2022-08-17T11:18:29.818Z,4.40
2022-08-17T11:23:59.315Z,4.60
2022-08-17T11:34:23.098Z,6.18
2022-08-17T11:39:43.409Z,4.70
2022-08-17T11:44:59.324Z,4.30
2022-08-17T11:50:45.540Z,4.72
2022-08-17T11:55:53.472Z,4.15
2022-08-17T12:00:58.373Z,4.60
2022-08-17T12:06:06.064Z,4.60
2022-08-17T12:11:15.945Z,4.30
2022-08-17T12:16:20.879Z,4.53
2022-08-17T12:21:54.493Z,4.60
2022-08-17T12:26:59.557Z,4.75
2022-08-17T12:32:02.220Z,4.70
2022-08-17T12:37:14.566Z,4.25
2022-08-17T12:42:26.052Z,4.30
2022-08-17T12:47:29.968Z,4.93
2022-08-17T12:52:37.571Z,4.45
2022-08-17T12:57:43.209Z,4.00
2022-08-17T13:02:47.197Z,4.28
2022-08-17T13:07:50.574Z,4.80
2022-08-17T13:12:53.544Z,4.40
2022-08-17T13:17:58.551Z,4.68
2022-08-17T13:23:03.945Z,4.10
2022-08-17T13:28:33.606Z,4.55
2022-08-17T13:33:43.337Z,4.40
2022-08-17T13:38:49.661Z,4.53
2022-08-17T13:43:51.451Z,4.63
2022-08-17T13:49:06.038Z,4.93
2022-08-17T13:54:26.009Z,4.60
2022-08-17T13:59:53.062Z,4.80
2022-08-17T14:04:57.890Z,4.95
2022-08-17T14:10:10.862Z,5.20
2022-08-17T14:15:15.892Z,4.72
2022-08-17T14:20:20.478Z,4.30
2022-08-17T14:25:25.650Z,4.85
2022-08-17T14:30:28.953Z,4.82
2022-08-17T14:35:32.267Z,6.70
2022-08-17T14:40:35.201Z,5.28
2022-08-17T14:45:37.121Z,4.93
2022-08-17T14:50:41.530Z,4.57
2022-08-17T14:55:45.747Z,5.00
2022-08-17T15:00:50.977Z,4.70
2022-08-17T15:05:53.842Z,4.93
2022-08-17T15:10:55.774Z,5.20
2022-08-17T15:15:59.944Z,4.75
2022-08-17T15:21:04.461Z,4.53
2022-08-17T15:26:07.561Z,4.68
2022-08-17T15:31:09.416Z,4.65
2022-08-17T15:36:11.283Z,4.75
2022-08-17T15:41:17.884Z,4.63
2022-08-17T15:46:22.802Z,5.00
2022-08-17T15:51:33.026Z,4.72
2022-08-17T15:56:35.335Z,4.75
2022-08-17T16:03:06.193Z,4.90
2022-08-17T16:07:00.147Z,5.05
2022-08-17T16:12:10.877Z,5.20
2022-08-17T16:17:38.609Z,5.00
2022-08-17T16:22:45.234Z,4.97
2022-08-17T16:27:49.307Z,5.03
2022-08-17T16:32:53.062Z,6.65
2022-08-17T16:37:57.117Z,7.55
2022-08-17T16:42:59.178Z,7.90
2022-08-17T16:48:01.608Z,8.02
2022-08-17T16:53:10.494Z,6.75
2022-08-17T17:03:18.918Z,7.53
2022-08-17T17:08:30.590Z,7.72
2022-08-17T17:13:43.737Z,7.53
2022-08-17T17:19:12.348Z,7.15
2022-08-17T17:24:37.468Z,6.68
2022-08-17T17:30:05.092Z,7.75
2022-08-17T17:35:23.023Z,6.25
2022-08-17T17:40:42.761Z,6.63
2022-08-17T17:45:50.673Z,7.30
2022-08-17T17:51:02.894Z,6.65
2022-08-17T17:56:07.763Z,7.13
2022-08-17T18:02:00.381Z,7.45
2022-08-17T18:07:24.878Z,7.72
2022-08-17T18:12:45.729Z,8.40
2022-08-17T18:18:06.511Z,9.27
2022-08-17T18:23:08.576Z,8.40
2022-08-17T18:28:30.305Z,9.25
2022-08-17T18:33:32.882Z,8.77
2022-08-17T18:38:42.945Z,9.43
2022-08-17T18:43:57.650Z,11.43
2022-08-17T18:49:27.598Z,28.38
2022-08-17T18:59:43.391Z,14.38
2022-08-17T19:05:02.467Z,20.17
2022-08-17T19:10:10.218Z,19.42
2022-08-17T19:15:21.263Z,12.55
2022-08-17T19:20:49.550Z,9.05
2022-08-17T19:25:58.368Z,29.85
2022-08-17T19:31:09.950Z,9.45
2022-08-17T19:36:26.339Z,9.00
2022-08-17T19:41:46.639Z,7.70
2022-08-17T19:47:53.201Z,14.18
2022-08-17T19:53:30.107Z,12.23
2022-08-17T19:59:12.478Z,24.25
2022-08-17T20:04:42.230Z,10.50
2022-08-17T20:09:53.653Z,9.38
2022-08-17T20:15:13.939Z,9.48
2022-08-17T20:20:43.466Z,10.13
2022-08-17T20:26:44.089Z,11.75
2022-08-17T20:31:59.394Z,8.73
2022-08-17T20:37:13.343Z,13.38
2022-08-17T20:42:23.785Z,8.55
2022-08-17T20:48:00.814Z,8.82
2022-08-17T20:53:11.386Z,8.40
2022-08-17T20:58:31.105Z,12.48
2022-08-17T21:03:51.055Z,9.90
2022-08-17T21:09:30.498Z,9.80
2022-08-17T21:14:59.809Z,8.75
2022-08-17T21:20:17.121Z,9.40
2022-08-17T21:25:40.337Z,10.90
2022-08-17T21:30:48.041Z,9.82
2022-08-17T21:35:50.509Z,9.80
2022-08-17T21:40:53.608Z,9.15
2022-08-17T21:46:00.372Z,9.20
2022-08-17T21:51:19.506Z,9.15
2022-08-17T21:56:45.646Z,9.98
2022-08-17T22:01:55.983Z,9.35
2022-08-17T22:07:00.910Z,9.50
2022-08-17T22:12:13.844Z,9.60
2022-08-17T22:17:18.991Z,10.50
2022-08-17T22:22:34.169Z,11.00
2022-08-17T22:27:57.196Z,10.32
2022-08-17T22:33:09.150Z,10.02
2022-08-17T22:38:19.893Z,11.05
2022-08-17T22:43:28.560Z,10.63
2022-08-17T22:48:31.378Z,10.93
2022-08-17T22:53:53.751Z,10.90
2022-08-17T22:59:19.108Z,10.98
2022-08-17T23:04:39.312Z,12.70
2022-08-17T23:09:42.580Z,10.88
2022-08-17T23:14:49.288Z,12.90
2022-08-17T23:19:51.079Z,11.90
2022-08-17T23:24:57.071Z,10.68
2022-08-17T23:29:59.163Z,10.98
2022-08-17T23:35:04.202Z,10.90
2022-08-17T23:40:09.363Z,10.80
2022-08-17T23:45:13.119Z,10.70
2022-08-17T23:50:16.051Z,11.30
2022-08-17T23:55:18.987Z,10.65
